Aérodrome :







RETROUVEZ-NOUS SUR...

 
LOGIN :

S'inscrire | Disclaimer

   EN    FR    IT 

 









Légende :    VFR   VFR Marginal   IFR   IFR Intensif   IFR Très Intensif
Visi : 
Plafond : 
>= 8 km
>= 3000ft
5 à 8 km
1000 à 3000 ft
1500m à 5 km
500 à 1000 ft
800 à 1500m
200 à 500 ft
< 800m
< 200 ft
Symboles :   Orages  Brouillard  Fortes neiges  Fortes précipitations  Vent > 20 kt






- Altitude de l'aérodrome : 1005 ft
- Code IATA : YAH


CYAH - La Grande-4

DERNIER METAR :
  • 290607Z AUTO 21006KT 6SM -SN BKN030 OVC080 M04/M05 A2958 RMK SLP042

METARs EXPIRÉS :
  • 290600Z AUTO 21005KT 4SM -SN FEW014 BKN028 OVC080 M05/M06 A2958 RMK SLP042
  • 290547Z AUTO 21004KT 2 1/4SM -SN SCT014 OVC030 M04/M05 A2958 RMK SLP041
  • 290538Z AUTO 21003KT 2 1/4SM -SN BKN014 OVC023 M04/M05 A2957 RMK SLP041
  • 290530Z AUTO 23002KT 5SM -SN OVC014 M04/M05 A2957 RMK SLP040
  • 290520Z AUTO 22002KT 6SM -SN OVC017 M04/M05 A2957 RMK SLP040
  • 290500Z AUTO 22004KT 3SM -SN FEW015 BKN020 OVC032 M04/M05 A2957 RMK SLP040
  • 290457Z AUTO 22004KT 3SM -SN BKN018 OVC032 M04/M05 A2957 RMK SLP040
  • 290452Z AUTO 22004KT 3SM -SN SCT018 OVC032 M04/M05 A2957 RMK SLP040
  • 290433Z AUTO 23004KT 5SM -SN BKN016 BKN045 OVC075 M04/M05 A2957 RMK SLP038
  • 290413Z AUTO 21004KT 6SM -SN FEW016 BKN034 OVC075 M04/M05 A2957 RMK SLP037
  • 290356Z AUTO 21004KT 2 1/2SM -SN FEW015 OVC032 M04/M05 A2957 RMK SLP038
  • 290341Z AUTO 20004KT 3SM -SN OVC028 M04/M05 A2957 RMK SLP036

Prévision TAF périmée.
FIR CZUL / Amérique du Nord



MET'MAP, la Météo Aéronautique d'un coup d'oeil ! - Copyright ORBIFLY Décembre 2007 - Disclaimer

ORBIFLY MET'MAP TEAM :

Programmation & Développement : Alexandra Zaïnal
Sur une idée originale de : Baudouin d'Aumeries
Assistance à la programmation : Marc-Olivier Méhu
Soutien technique & logistique : Manuel Goepfert

Contact : metmap@orbifly.com




SOURCES & CREDITS :

   NOAA